createdAt,value
2023-04-19T00:00:26.890Z,3.80
2023-04-19T00:03:30.592Z,5.07
2023-04-19T00:06:33.051Z,4.45
2023-04-19T00:09:35.475Z,3.38
2023-04-19T00:12:37.880Z,3.50
2023-04-19T00:15:40.154Z,4.55
2023-04-19T00:18:42.977Z,4.70
2023-04-19T00:21:45.160Z,5.47
2023-04-19T00:24:47.265Z,4.30
2023-04-19T00:27:49.450Z,4.47
2023-04-19T00:30:51.645Z,4.50
2023-04-19T00:33:53.847Z,5.43
2023-04-19T00:36:56.775Z,4.55
2023-04-19T00:39:58.954Z,3.97
2023-04-19T00:43:01.834Z,5.35
2023-04-19T00:46:06.203Z,3.47
2023-04-19T00:49:09.251Z,4.38
2023-04-19T00:52:11.546Z,3.47
2023-04-19T00:55:14.123Z,4.50
2023-04-19T00:58:17.793Z,3.47
2023-04-19T01:01:20.226Z,5.40
2023-04-19T01:04:27.197Z,3.15
2023-04-19T01:07:29.672Z,3.35
2023-04-19T01:10:31.881Z,3.72
2023-04-19T01:13:34.536Z,3.30
2023-04-19T01:16:39.988Z,3.58
2023-04-19T01:19:42.425Z,4.35
2023-04-19T01:22:44.823Z,4.20
2023-04-19T01:25:47.626Z,3.03
2023-04-19T01:28:49.837Z,4.78
2023-04-19T01:31:53.971Z,3.10
2023-04-19T01:34:56.425Z,3.58
2023-04-19T01:37:58.783Z,5.00
2023-04-19T01:41:00.964Z,3.35
2023-04-19T01:44:03.219Z,3.70
2023-04-19T01:47:06.002Z,3.75
2023-04-19T01:50:08.979Z,2.90
2023-04-19T01:53:11.391Z,2.80
2023-04-19T01:56:13.568Z,3.13
2023-04-19T01:59:15.656Z,4.10
2023-04-19T02:02:17.860Z,3.60
2023-04-19T02:05:20.160Z,3.35
2023-04-19T02:08:22.403Z,3.63
2023-04-19T02:11:24.603Z,4.50
2023-04-19T02:14:26.747Z,3.88
2023-04-19T02:17:29.026Z,5.15
2023-04-19T02:20:32.304Z,3.53
2023-04-19T02:23:35.490Z,3.70
2023-04-19T02:26:37.641Z,3.85
2023-04-19T02:29:40.344Z,3.33
2023-04-19T02:32:42.583Z,5.10
2023-04-19T02:35:44.790Z,3.72
2023-04-19T02:38:47.033Z,4.25
2023-04-19T02:41:49.519Z,3.85
2023-04-19T02:44:51.695Z,4.15
2023-04-19T02:47:53.996Z,3.20
2023-04-19T02:50:56.467Z,2.95
2023-04-19T02:53:59.148Z,3.67
2023-04-19T02:57:01.897Z,3.80
2023-04-19T03:00:05.767Z,4.18
2023-04-19T03:03:09.806Z,3.97
2023-04-19T03:06:12.084Z,3.47
2023-04-19T03:09:14.467Z,3.08
2023-04-19T03:12:17.307Z,4.80
2023-04-19T03:15:20.713Z,5.05
2023-04-19T03:18:23.088Z,3.13
2023-04-19T03:21:29.180Z,4.40
2023-04-19T03:24:31.869Z,3.30
2023-04-19T03:27:42.755Z,4.95
2023-04-19T03:30:48.387Z,4.60
2023-04-19T03:33:50.904Z,6.87
2023-04-19T03:36:55.219Z,3.85
2023-04-19T03:39:57.408Z,3.08
2023-04-19T03:43:06.276Z,4.68
2023-04-19T03:46:10.149Z,4.95
2023-04-19T03:49:12.657Z,3.47
2023-04-19T03:52:17.542Z,4.85
2023-04-19T03:55:20.240Z,5.20
2023-04-19T03:58:22.806Z,4.70
2023-04-19T04:01:33.924Z,4.97
2023-04-19T04:04:37.447Z,5.73
2023-04-19T04:07:39.951Z,4.03
2023-04-19T04:10:42.327Z,4.18
2023-04-19T04:13:46.487Z,3.53
2023-04-19T04:16:55.635Z,4.82
2023-04-19T04:19:57.912Z,5.00
2023-04-19T04:23:04.014Z,5.32
2023-04-19T04:26:09.858Z,5.27
2023-04-19T04:29:25.798Z,4.50
2023-04-19T04:32:31.079Z,5.07
2023-04-19T04:35:36.345Z,5.97
2023-04-19T04:38:46.634Z,5.35
2023-04-19T04:41:50.050Z,5.90
2023-04-19T04:44:52.322Z,5.45
2023-04-19T04:47:54.683Z,4.45
2023-04-19T04:50:57.733Z,6.95
2023-04-19T04:54:01.096Z,5.28
2023-04-19T04:57:04.068Z,5.40
2023-04-19T05:00:07.148Z,5.93
2023-04-19T05:03:17.990Z,6.60
2023-04-19T05:06:27.210Z,8.67
2023-04-19T05:09:29.434Z,5.63
2023-04-19T05:12:32.678Z,6.78
2023-04-19T05:15:34.900Z,5.00
2023-04-19T05:18:39.001Z,5.43
2023-04-19T05:21:41.401Z,5.35
2023-04-19T05:24:45.471Z,5.93
2023-04-19T05:27:48.614Z,6.27
2023-04-19T05:30:56.409Z,7.30
2023-04-19T05:34:06.850Z,8.25
2023-04-19T05:37:09.221Z,5.80
2023-04-19T05:40:11.835Z,6.65
2023-04-19T05:43:13.971Z,6.78
2023-04-19T05:46:16.170Z,7.35
2023-04-19T05:49:18.467Z,6.50
2023-04-19T05:52:20.646Z,6.20
2023-04-19T05:55:27.519Z,6.82
2023-04-19T05:58:29.756Z,5.13
2023-04-19T06:01:32.195Z,5.53
2023-04-19T06:04:34.654Z,7.88
2023-04-19T06:07:40.586Z,7.97
2023-04-19T06:10:54.503Z,6.07
2023-04-19T06:13:59.990Z,6.35
2023-04-19T06:17:02.554Z,5.07
2023-04-19T06:20:07.471Z,6.95
2023-04-19T06:23:09.628Z,7.15
2023-04-19T06:26:11.847Z,8.95
2023-04-19T06:29:13.965Z,5.37
2023-04-19T06:32:16.178Z,6.75
2023-04-19T06:35:18.525Z,6.45
2023-04-19T06:38:21.944Z,7.27
2023-04-19T06:41:30.198Z,6.55
2023-04-19T06:44:32.556Z,5.55
2023-04-19T06:47:35.716Z,5.10
2023-04-19T06:50:38.189Z,5.82
2023-04-19T06:53:44.861Z,6.88
2023-04-19T06:56:49.870Z,5.35
2023-04-19T06:59:54.080Z,5.10
2023-04-19T07:02:56.742Z,6.88
2023-04-19T07:06:04.346Z,6.47
2023-04-19T07:09:10.543Z,6.30
2023-04-19T07:12:13.675Z,6.60
2023-04-19T07:15:16.112Z,7.35
2023-04-19T07:18:18.302Z,5.70
2023-04-19T07:21:20.569Z,6.93
2023-04-19T07:24:22.858Z,5.32
2023-04-19T07:27:25.606Z,6.07
2023-04-19T07:30:27.813Z,5.63
2023-04-19T07:33:30.168Z,6.55
2023-04-19T07:36:32.368Z,5.25
2023-04-19T07:39:34.562Z,7.13
2023-04-19T07:42:36.806Z,4.75
2023-04-19T07:45:38.956Z,5.10
2023-04-19T07:48:41.136Z,7.55
2023-04-19T07:51:43.341Z,6.00
2023-04-19T07:54:46.062Z,7.95
2023-04-19T07:57:50.891Z,5.03
2023-04-19T08:00:56.638Z,4.77
2023-04-19T08:04:03.550Z,3.75
2023-04-19T08:07:07.367Z,3.85
2023-04-19T08:10:11.850Z,3.20
2023-04-19T08:13:13.985Z,4.82
2023-04-19T08:17:05.852Z,6.00
2023-04-19T08:19:40.930Z,3.65
2023-04-19T08:22:47.177Z,3.33
2023-04-19T08:25:49.521Z,5.82
2023-04-19T08:28:54.234Z,5.03
2023-04-19T08:32:02.716Z,4.07
2023-04-19T08:35:09.254Z,3.67
2023-04-19T08:38:17.999Z,5.32
2023-04-19T08:41:23.117Z,6.47
2023-04-19T08:44:36.028Z,5.10
2023-04-19T08:47:58.726Z,2.88
2023-04-19T08:51:05.767Z,7.82
2023-04-19T08:54:08.816Z,5.65
2023-04-19T08:57:12.669Z,2.97
2023-04-19T09:00:19.097Z,3.80
2023-04-19T09:03:25.334Z,2.07
2023-04-19T09:06:28.181Z,4.95
2023-04-19T09:09:36.970Z,2.80
2023-04-19T09:12:43.797Z,4.53
2023-04-19T09:15:45.989Z,3.00
2023-04-19T09:19:08.160Z,2.75
2023-04-19T09:22:19.416Z,3.80
2023-04-19T09:25:46.515Z,2.65
2023-04-19T09:28:59.161Z,3.75
2023-04-19T09:32:01.422Z,2.65
2023-04-19T09:35:04.240Z,3.70
2023-04-19T09:38:07.077Z,3.05
2023-04-19T09:41:10.977Z,2.65
2023-04-19T09:47:25.297Z,2.83
2023-04-19T09:50:27.771Z,3.97
2023-04-19T09:53:36.904Z,3.22
2023-04-19T09:56:46.478Z,4.85
2023-04-19T09:59:53.343Z,3.83
2023-04-19T10:02:58.764Z,4.97
2023-04-19T10:06:14.124Z,4.97
2023-04-19T10:09:27.634Z,4.18
2023-04-19T10:12:58.444Z,3.80
2023-04-19T10:16:04.562Z,5.10
2023-04-19T10:19:17.439Z,2.25
2023-04-19T10:22:21.189Z,3.75
2023-04-19T10:25:32.377Z,3.35
2023-04-19T10:28:38.181Z,3.75
2023-04-19T10:31:44.550Z,4.53
2023-04-19T10:34:47.625Z,4.00
2023-04-19T10:38:10.183Z,6.63
2023-04-19T10:41:17.015Z,4.93
2023-04-19T10:44:19.919Z,4.57
2023-04-19T10:47:42.139Z,4.10
2023-04-19T10:51:04.901Z,4.97
2023-04-19T10:54:09.142Z,7.20
2023-04-19T10:57:11.900Z,7.00
2023-04-19T11:00:20.275Z,7.75
2023-04-19T11:03:44.733Z,6.88
2023-04-19T11:06:53.825Z,8.38
2023-04-19T11:09:56.385Z,4.80
2023-04-19T11:12:58.651Z,6.30
2023-04-19T11:16:00.915Z,6.38
2023-04-19T11:19:03.170Z,5.73
2023-04-19T11:22:05.470Z,7.10
2023-04-19T11:25:16.627Z,6.10
2023-04-19T11:28:19.094Z,5.32
2023-04-19T11:31:22.565Z,6.90
2023-04-19T11:34:27.292Z,7.43
2023-04-19T11:37:35.150Z,5.35
2023-04-19T11:40:39.175Z,5.47
2023-04-19T11:43:45.335Z,5.05
2023-04-19T11:47:05.259Z,4.00
2023-04-19T11:50:38.898Z,5.47
2023-04-19T11:53:41.636Z,7.18
2023-04-19T11:57:06.590Z,5.22
2023-04-19T12:00:12.361Z,9.63
2023-04-19T12:03:15.061Z,7.18
2023-04-19T12:06:24.442Z,8.43
2023-04-19T12:09:31.357Z,5.75
2023-04-19T12:12:33.589Z,10.97
2023-04-19T12:15:43.114Z,6.55
2023-04-19T12:18:48.976Z,6.68
2023-04-19T12:21:51.265Z,6.33
2023-04-19T12:24:57.071Z,5.32
2023-04-19T12:28:00.724Z,5.88
2023-04-19T12:31:03.491Z,8.05
2023-04-19T12:34:05.856Z,6.13
2023-04-19T12:37:08.533Z,7.47
2023-04-19T12:40:12.059Z,6.63
2023-04-19T12:43:15.047Z,6.57
2023-04-19T12:46:20.707Z,7.63
2023-04-19T12:49:23.232Z,7.35
2023-04-19T12:52:26.321Z,8.43
2023-04-19T12:55:28.477Z,8.20
2023-04-19T12:58:31.396Z,7.53
2023-04-19T13:01:33.640Z,7.57
2023-04-19T13:04:36.433Z,8.77
2023-04-19T13:07:38.679Z,8.52
2023-04-19T13:10:40.854Z,7.03
2023-04-19T13:13:43.127Z,8.93
2023-04-19T13:16:45.388Z,8.68
2023-04-19T13:19:47.699Z,8.10
2023-04-19T13:22:50.047Z,8.00
2023-04-19T13:25:54.250Z,8.35
2023-04-19T13:28:56.818Z,6.60
2023-04-19T13:31:58.981Z,5.97
2023-04-19T13:35:01.209Z,8.95
2023-04-19T13:38:03.355Z,5.57
2023-04-19T13:41:05.699Z,5.13
2023-04-19T13:44:07.859Z,5.70
2023-04-19T13:47:10.056Z,6.45
2023-04-19T13:50:13.023Z,6.90
2023-04-19T13:53:15.513Z,5.47
2023-04-19T13:56:19.830Z,7.55
2023-04-19T13:59:22.051Z,6.85
2023-04-19T14:02:24.461Z,5.78
2023-04-19T14:05:26.756Z,8.75
2023-04-19T14:08:28.903Z,10.63
2023-04-19T14:11:31.332Z,8.30
2023-04-19T14:14:33.524Z,8.17
2023-04-19T14:17:36.014Z,9.18
2023-04-19T14:20:38.320Z,10.13
2023-04-19T14:23:40.727Z,11.07
2023-04-19T14:26:42.917Z,9.35
2023-04-19T14:29:45.197Z,9.60
2023-04-19T14:32:47.478Z,9.48
2023-04-19T14:35:49.707Z,10.48
2023-04-19T14:38:51.977Z,7.15
2023-04-19T14:41:54.172Z,8.68
2023-04-19T14:44:57.946Z,7.73
2023-04-19T14:48:00.160Z,6.80
2023-04-19T14:51:02.324Z,8.90
2023-04-19T14:54:04.541Z,7.30
2023-04-19T14:57:06.733Z,7.53
2023-04-19T15:00:09.623Z,6.93
2023-04-19T15:03:11.887Z,7.28
2023-04-19T15:06:14.127Z,8.00
2023-04-19T15:09:16.509Z,6.22
2023-04-19T15:12:18.945Z,7.00
2023-04-19T15:15:21.508Z,6.87
2023-04-19T15:18:23.673Z,7.50
2023-04-19T15:21:26.147Z,7.38
2023-04-19T15:24:28.317Z,6.57
2023-04-19T15:27:31.226Z,6.05
2023-04-19T15:30:33.430Z,7.78
2023-04-19T15:33:36.502Z,5.88
2023-04-19T15:36:38.768Z,5.22
2023-04-19T15:39:40.934Z,5.78
2023-04-19T15:42:43.186Z,5.85
2023-04-19T15:45:45.468Z,6.50
2023-04-19T15:48:48.454Z,5.60
2023-04-19T15:51:50.961Z,5.18
2023-04-19T15:54:53.245Z,6.40
2023-04-19T15:57:55.355Z,5.07
2023-04-19T16:00:57.632Z,4.82
2023-04-19T16:04:00.014Z,6.10
2023-04-19T16:07:02.303Z,4.43
2023-04-19T16:10:04.828Z,3.25
2023-04-19T16:13:07.224Z,3.88
2023-04-19T16:16:09.397Z,3.83
2023-04-19T16:19:11.607Z,2.92
2023-04-19T16:22:13.809Z,3.22
2023-04-19T16:25:16.523Z,3.10
2023-04-19T16:28:19.834Z,4.88
2023-04-19T16:31:22.126Z,2.40
2023-04-19T16:34:25.533Z,3.53
2023-04-19T16:37:27.745Z,3.33
2023-04-19T16:40:30.301Z,3.70
2023-04-19T16:43:34.027Z,3.15
2023-04-19T16:46:36.571Z,3.60
2023-04-19T16:49:38.766Z,3.35
2023-04-19T16:52:41.022Z,2.80
2023-04-19T16:55:43.202Z,3.47
2023-04-19T16:58:46.205Z,3.92
2023-04-19T17:01:48.405Z,3.75
2023-04-19T17:04:50.810Z,3.38
2023-04-19T17:07:54.761Z,3.17
2023-04-19T17:10:58.462Z,4.47
2023-04-19T17:14:01.593Z,3.80
2023-04-19T17:17:03.791Z,3.17
2023-04-19T17:20:06.488Z,3.83
2023-04-19T17:23:08.620Z,2.80
2023-04-19T17:26:10.789Z,3.23
2023-04-19T17:29:13.066Z,4.03
2023-04-19T17:32:15.553Z,3.35
2023-04-19T17:35:18.051Z,4.32
2023-04-19T17:38:20.437Z,5.47
2023-04-19T17:41:22.612Z,5.53
2023-04-19T17:44:24.780Z,4.18
2023-04-19T17:47:27.183Z,5.73
2023-04-19T17:50:30.011Z,3.85
2023-04-19T17:53:32.195Z,5.38
2023-04-19T17:56:34.355Z,4.83
2023-04-19T17:59:36.482Z,4.32
2023-04-19T18:02:38.888Z,6.47
2023-04-19T18:05:41.591Z,5.85
2023-04-19T18:08:45.708Z,4.95
2023-04-19T18:11:47.986Z,4.45
2023-04-19T18:14:50.322Z,6.50
2023-04-19T18:17:52.582Z,4.90
2023-04-19T18:20:54.889Z,5.97
2023-04-19T18:23:57.057Z,7.88
2023-04-19T18:26:59.850Z,6.23
2023-04-19T18:30:04.022Z,8.98
2023-04-19T18:33:06.265Z,5.18
2023-04-19T18:36:08.608Z,5.80
2023-04-19T18:39:11.249Z,5.00
2023-04-19T18:42:13.373Z,5.55
2023-04-19T18:45:15.604Z,7.60
2023-04-19T18:48:17.757Z,7.07
2023-04-19T18:51:19.992Z,5.95
2023-04-19T18:54:22.314Z,6.30
2023-04-19T18:57:27.702Z,6.50
2023-04-19T19:00:33.272Z,8.02
2023-04-19T19:06:40.530Z,6.57
2023-04-19T19:09:54.027Z,7.88
2023-04-19T19:13:03.295Z,10.00
2023-04-19T19:16:05.705Z,6.97
2023-04-19T19:19:08.640Z,7.23
2023-04-19T19:22:25.082Z,6.85
2023-04-19T19:25:30.189Z,5.88
2023-04-19T19:28:32.435Z,4.93
2023-04-19T19:31:34.618Z,5.18
2023-04-19T19:34:51.378Z,6.60
2023-04-19T19:37:57.519Z,5.72
2023-04-19T19:41:41.757Z,8.18
2023-04-19T19:44:21.748Z,6.07
2023-04-19T19:47:24.976Z,6.25
2023-04-19T19:53:33.598Z,6.60
2023-04-19T19:56:35.739Z,6.95
2023-04-19T19:59:38.538Z,7.80
2023-04-19T20:02:55.011Z,6.93
2023-04-19T20:05:58.949Z,6.68
2023-04-19T20:09:01.464Z,9.35
2023-04-19T20:12:04.391Z,6.78
2023-04-19T20:15:07.472Z,6.85
2023-04-19T20:18:09.709Z,7.68
2023-04-19T20:21:12.636Z,8.93
2023-04-19T20:24:15.224Z,6.07
2023-04-19T20:27:17.581Z,5.85
2023-04-19T20:30:19.851Z,6.60
2023-04-19T20:33:22.439Z,6.75
2023-04-19T20:36:24.777Z,8.85
2023-04-19T20:39:26.950Z,6.80
2023-04-19T20:42:29.126Z,7.18
2023-04-19T20:45:31.444Z,9.07
2023-04-19T20:48:33.919Z,7.68
2023-04-19T20:51:36.164Z,6.93
2023-04-19T20:54:38.972Z,7.90
2023-04-19T20:57:41.161Z,7.90
2023-04-19T21:00:43.343Z,7.90
2023-04-19T21:03:46.096Z,7.45
2023-04-19T21:06:48.542Z,6.60
2023-04-19T21:09:50.703Z,5.93
2023-04-19T21:12:52.943Z,7.05
2023-04-19T21:15:55.843Z,6.80
2023-04-19T21:18:58.070Z,5.75
2023-04-19T21:22:00.235Z,5.53
2023-04-19T21:25:02.396Z,8.27
2023-04-19T21:28:04.683Z,6.78
2023-04-19T21:31:06.827Z,7.53
2023-04-19T21:34:09.006Z,6.32
2023-04-19T21:37:11.162Z,7.50
2023-04-19T21:40:13.421Z,7.97
2023-04-19T21:43:17.024Z,7.07
2023-04-19T21:46:19.162Z,7.80
2023-04-19T21:49:21.302Z,8.25
2023-04-19T21:52:23.443Z,8.77
2023-04-19T21:55:25.622Z,6.07
2023-04-19T21:58:27.839Z,7.78
2023-04-19T22:01:30.106Z,6.70
2023-04-19T22:04:32.415Z,7.43
2023-04-19T22:07:38.072Z,8.82
2023-04-19T22:10:41.084Z,7.25
2023-04-19T22:13:44.122Z,6.18
2023-04-19T22:16:47.547Z,7.28
2023-04-19T22:19:50.020Z,7.43
2023-04-19T22:22:52.183Z,7.07
2023-04-19T22:25:54.329Z,8.27
2023-04-19T22:28:56.513Z,6.30
2023-04-19T22:31:58.714Z,7.97
2023-04-19T22:35:00.929Z,7.55
2023-04-19T22:38:03.327Z,8.25
2023-04-19T22:41:05.733Z,6.70
2023-04-19T22:44:07.935Z,7.00
2023-04-19T22:47:11.871Z,8.27
2023-04-19T22:50:14.225Z,7.15
2023-04-19T22:53:16.381Z,5.77
2023-04-19T22:56:18.631Z,6.60
2023-04-19T22:59:20.998Z,7.43
2023-04-19T23:02:23.312Z,8.53
2023-04-19T23:05:28.611Z,7.07
2023-04-19T23:08:30.879Z,8.77
2023-04-19T23:11:34.745Z,9.23
2023-04-19T23:14:38.855Z,10.15
2023-04-19T23:17:41.299Z,7.85
2023-04-19T23:20:43.478Z,8.63
2023-04-19T23:23:45.945Z,9.60
2023-04-19T23:26:48.068Z,8.85
2023-04-19T23:29:50.339Z,7.15
2023-04-19T23:32:52.640Z,9.17
2023-04-19T23:35:54.842Z,9.40
2023-04-19T23:38:56.980Z,8.75
2023-04-19T23:41:59.224Z,9.80
2023-04-19T23:45:01.693Z,8.50
2023-04-19T23:48:04.213Z,9.93
2023-04-19T23:51:06.532Z,7.45
2023-04-19T23:54:08.681Z,9.23
2023-04-19T23:57:10.819Z,9.05
